Venango Regional Airport
KFKL : now visible

Airfield :











YOU CAN JOIN US ON...

 
LOGIN :

Register | Disclaimer

   EN    FR    IT 

 









Legend :    VFR   Marginal VFR   IFR   Intensive IFR   Very Intensive IFR
Visi :
Ceiling :
>= 8 km
>= 3000ft
5 to 8 km
1000 to 3000 ft
1500m to 5 km
500 to 1000 ft
800 to 1500m
200 to 500 ft
< 800m
< 200 ft
Symbols :   Thunderstorms  Fog  Heavy snow  Heavy precipitations  Wind > 20 kt






- Airport Elevation : 1540 ft


KFKL - Venango Regional

CURRENT METAR :
  • 221056Z AUTO 00000KT 5SM BR OVC003 14/14 A3022 RMK AO2 SLP235 T01390139

EXPIRED METARs :
  • 221040Z AUTO 00000KT 5SM BR OVC003 14/14 A3022 RMK AO2
  • 221020Z AUTO 11004KT 5SM BR BKN005 OVC012 14/13 A3023 RMK AO2
  • 221012Z AUTO 09003KT 2SM BR BKN005 OVC012 13/13 A3023 RMK AO2 VIS 1V5
  • 221003Z AUTO 00000KT 1/2SM FG BKN005 OVC012 13/13 A3023 RMK AO2 CIG 004V009
  • 220941Z AUTO 35004KT 1/4SM FG OVC005 13/13 A3023 RMK AO2
  • 220856Z AUTO 00000KT 5SM BR OVC007 14/13 A3022 RMK AO2 SLP233 T01390133 55002
  • 220822Z AUTO 13003KT 9SM OVC007 14/14 A3022 RMK AO2

TAF KFKL
Valid from the 22 at 09:00 until the 23 at 06:00 UTC


220906Z 2209/2306 VRB03KT 5SM BR OVC007
FM221500 20005KT P6SM SCT010
FM221700 19005KT P6SM BKN050
FM230000 VRB05KT P6SM SKC
KZOB FIR / North America



MET'MAP, your aeronautical weather chart ! - Copyright ORBIFLY December 2007 - Disclaimer

ORBIFLY MET'MAP TEAM :

Programming & Development : Alexandra Zaïnal
Concept & original design : Baudouin d'Aumeries
Assistance for programming : Marc-Olivier Méhu
Technical & hardware support : Manuel Goepfert

Contact : metmap@orbifly.com




SOURCES & CREDITS :

   NOAA       Earth
Advisory